sensor_id;sensor_type;location;lat;lon;timestamp;temperature;humidity
50989;DHT22;37008;52.210;21.112;2023-08-06T00:00:05;18.50;99.90
50989;DHT22;37008;52.210;21.112;2023-08-06T00:02:30;18.50;99.90
50989;DHT22;37008;52.210;21.112;2023-08-06T00:04:56;18.50;99.90
50989;DHT22;37008;52.210;21.112;2023-08-06T00:07:21;18.50;99.90
50989;DHT22;37008;52.210;21.112;2023-08-06T00:09:47;18.50;99.90
50989;DHT22;37008;52.210;21.112;2023-08-06T00:12:13;18.50;99.90
50989;DHT22;37008;52.210;21.112;2023-08-06T00:14:38;18.50;99.90
50989;DHT22;37008;52.210;21.112;2023-08-06T00:17:04;18.50;99.90
50989;DHT22;37008;52.210;21.112;2023-08-06T00:19:31;18.50;99.90
50989;DHT22;37008;52.210;21.112;2023-08-06T00:21:56;18.50;99.90
50989;DHT22;37008;52.210;21.112;2023-08-06T00:24:22;18.50;99.90
50989;DHT22;37008;52.210;21.112;2023-08-06T00:26:48;18.50;99.90
50989;DHT22;37008;52.210;21.112;2023-08-06T00:29:14;18.50;99.90
50989;DHT22;37008;52.210;21.112;2023-08-06T00:31:39;18.40;99.90
50989;DHT22;37008;52.210;21.112;2023-08-06T00:34:05;18.40;99.90
50989;DHT22;37008;52.210;21.112;2023-08-06T00:36:31;18.40;99.90
50989;DHT22;37008;52.210;21.112;2023-08-06T00:38:56;18.40;99.90
50989;DHT22;37008;52.210;21.112;2023-08-06T00:41:22;18.40;99.90
50989;DHT22;37008;52.210;21.112;2023-08-06T00:43:47;18.40;99.90
50989;DHT22;37008;52.210;21.112;2023-08-06T00:46:13;18.30;99.90
50989;DHT22;37008;52.210;21.112;2023-08-06T00:48:42;18.40;99.90
50989;DHT22;37008;52.210;21.112;2023-08-06T00:51:10;18.30;99.90
50989;DHT22;37008;52.210;21.112;2023-08-06T00:53:37;18.30;99.90
50989;DHT22;37008;52.210;21.112;2023-08-06T00:56:03;18.30;99.90
50989;DHT22;37008;52.210;21.112;2023-08-06T00:58:29;18.30;99.90
50989;DHT22;37008;52.210;21.112;2023-08-06T01:00:54;18.20;99.90
50989;DHT22;37008;52.210;21.112;2023-08-06T01:03:20;18.20;99.90
50989;DHT22;37008;52.210;21.112;2023-08-06T01:05:46;18.30;99.90
50989;DHT22;37008;52.210;21.112;2023-08-06T01:08:35;18.20;99.90
50989;DHT22;37008;52.210;21.112;2023-08-06T01:11:59;18.30;99.90
50989;DHT22;37008;52.210;21.112;2023-08-06T01:14:18;18.20;99.90
50989;DHT22;37008;52.210;21.112;2023-08-06T01:16:49;18.30;99.90
50989;DHT22;37008;52.210;21.112;2023-08-06T01:19:17;18.30;99.90
50989;DHT22;37008;52.210;21.112;2023-08-06T01:21:43;18.20;99.90
50989;DHT22;37008;52.210;21.112;2023-08-06T01:24:09;18.30;99.90
50989;DHT22;37008;52.210;21.112;2023-08-06T01:26:42;18.20;99.90
50989;DHT22;37008;52.210;21.112;2023-08-06T01:29:15;18.20;99.90
50989;DHT22;37008;52.210;21.112;2023-08-06T01:31:44;18.20;99.90
50989;DHT22;37008;52.210;21.112;2023-08-06T01:34:17;18.20;99.90
50989;DHT22;37008;52.210;21.112;2023-08-06T01:36:45;18.20;99.90
50989;DHT22;37008;52.210;21.112;2023-08-06T01:39:10;18.10;99.90
50989;DHT22;37008;52.210;21.112;2023-08-06T01:41:36;18.10;99.90
50989;DHT22;37008;52.210;21.112;2023-08-06T01:44:01;18.10;99.90
50989;DHT22;37008;52.210;21.112;2023-08-06T01:46:27;18.10;99.90
50989;DHT22;37008;52.210;21.112;2023-08-06T01:48:53;18.10;99.90
50989;DHT22;37008;52.210;21.112;2023-08-06T01:51:18;18.10;99.90
50989;DHT22;37008;52.210;21.112;2023-08-06T01:53:44;18.10;99.90
50989;DHT22;37008;52.210;21.112;2023-08-06T01:56:09;18.10;99.90
50989;DHT22;37008;52.210;21.112;2023-08-06T01:58:35;18.10;99.90
50989;DHT22;37008;52.210;21.112;2023-08-06T02:01:01;18.10;99.90
50989;DHT22;37008;52.210;21.112;2023-08-06T02:03:27;18.10;99.90
50989;DHT22;37008;52.210;21.112;2023-08-06T02:05:53;18.10;99.90
50989;DHT22;37008;52.210;21.112;2023-08-06T02:08:18;18.10;99.90
50989;DHT22;37008;52.210;21.112;2023-08-06T02:10:45;18.10;99.90
50989;DHT22;37008;52.210;21.112;2023-08-06T02:13:11;18.20;99.90
50989;DHT22;37008;52.210;21.112;2023-08-06T02:15:42;18.10;99.90
50989;DHT22;37008;52.210;21.112;2023-08-06T02:18:08;18.20;99.90
50989;DHT22;37008;52.210;21.112;2023-08-06T02:20:36;18.10;99.90
50989;DHT22;37008;52.210;21.112;2023-08-06T02:23:02;18.10;99.90
50989;DHT22;37008;52.210;21.112;2023-08-06T02:25:27;18.20;99.90
50989;DHT22;37008;52.210;21.112;2023-08-06T02:27:53;18.30;99.90
50989;DHT22;37008;52.210;21.112;2023-08-06T02:30:18;18.20;99.90
50989;DHT22;37008;52.210;21.112;2023-08-06T02:32:44;18.20;99.90
50989;DHT22;37008;52.210;21.112;2023-08-06T02:35:09;18.30;99.90
50989;DHT22;37008;52.210;21.112;2023-08-06T02:37:35;18.30;99.90
50989;DHT22;37008;52.210;21.112;2023-08-06T02:40:01;18.30;99.90
50989;DHT22;37008;52.210;21.112;2023-08-06T02:42:27;18.30;99.90
50989;DHT22;37008;52.210;21.112;2023-08-06T02:44:53;18.30;99.90
50989;DHT22;37008;52.210;21.112;2023-08-06T02:47:22;18.30;99.90
50989;DHT22;37008;52.210;21.112;2023-08-06T02:49:47;18.30;99.90
50989;DHT22;37008;52.210;21.112;2023-08-06T02:52:13;18.30;99.90
50989;DHT22;37008;52.210;21.112;2023-08-06T02:54:39;18.30;99.90
50989;DHT22;37008;52.210;21.112;2023-08-06T02:57:05;18.30;99.90
50989;DHT22;37008;52.210;21.112;2023-08-06T02:59:32;18.40;99.90
50989;DHT22;37008;52.210;21.112;2023-08-06T03:01:57;18.30;99.90
50989;DHT22;37008;52.210;21.112;2023-08-06T03:04:23;18.40;99.90
50989;DHT22;37008;52.210;21.112;2023-08-06T03:06:51;18.40;99.90
50989;DHT22;37008;52.210;21.112;2023-08-06T03:09:17;18.40;99.90
50989;DHT22;37008;52.210;21.112;2023-08-06T03:11:43;18.40;99.90
50989;DHT22;37008;52.210;21.112;2023-08-06T03:14:09;18.40;99.90
50989;DHT22;37008;52.210;21.112;2023-08-06T03:16:35;18.40;99.90
50989;DHT22;37008;52.210;21.112;2023-08-06T03:19:01;18.40;99.90
50989;DHT22;37008;52.210;21.112;2023-08-06T03:21:26;18.50;99.90
50989;DHT22;37008;52.210;21.112;2023-08-06T03:23:52;18.50;99.90
50989;DHT22;37008;52.210;21.112;2023-08-06T03:26:18;18.50;99.90
50989;DHT22;37008;52.210;21.112;2023-08-06T03:28:43;18.50;99.90
50989;DHT22;37008;52.210;21.112;2023-08-06T03:31:09;18.50;99.90
50989;DHT22;37008;52.210;21.112;2023-08-06T03:33:34;18.50;99.90
50989;DHT22;37008;52.210;21.112;2023-08-06T03:36:00;18.50;99.90
50989;DHT22;37008;52.210;21.112;2023-08-06T03:38:26;18.60;99.90
50989;DHT22;37008;52.210;21.112;2023-08-06T03:40:52;18.60;99.90
50989;DHT22;37008;52.210;21.112;2023-08-06T03:43:17;18.60;99.90
50989;DHT22;37008;52.210;21.112;2023-08-06T03:45:43;18.60;99.90
50989;DHT22;37008;52.210;21.112;2023-08-06T03:48:09;18.70;99.90
50989;DHT22;37008;52.210;21.112;2023-08-06T03:50:34;18.70;99.90
50989;DHT22;37008;52.210;21.112;2023-08-06T03:53:00;18.70;99.90
50989;DHT22;37008;52.210;21.112;2023-08-06T03:55:26;18.70;99.90
50989;DHT22;37008;52.210;21.112;2023-08-06T03:57:51;18.70;99.90
50989;DHT22;37008;52.210;21.112;2023-08-06T04:00:17;18.80;99.90
50989;DHT22;37008;52.210;21.112;2023-08-06T04:02:43;18.80;99.90
50989;DHT22;37008;52.210;21.112;2023-08-06T04:05:08;18.80;99.90
50989;DHT22;37008;52.210;21.112;2023-08-06T04:07:34;18.80;99.90
50989;DHT22;37008;52.210;21.112;2023-08-06T04:10:02;18.90;99.90
50989;DHT22;37008;52.210;21.112;2023-08-06T04:12:28;18.90;99.90
50989;DHT22;37008;52.210;21.112;2023-08-06T04:14:54;18.90;99.90
50989;DHT22;37008;52.210;21.112;2023-08-06T04:17:21;18.90;99.90
50989;DHT22;37008;52.210;21.112;2023-08-06T04:19:54;19.00;99.90
50989;DHT22;37008;52.210;21.112;2023-08-06T04:22:20;19.00;99.90
50989;DHT22;37008;52.210;21.112;2023-08-06T04:24:46;19.10;99.90
50989;DHT22;37008;52.210;21.112;2023-08-06T04:27:13;19.10;99.90
50989;DHT22;37008;52.210;21.112;2023-08-06T04:29:39;19.10;99.90
50989;DHT22;37008;52.210;21.112;2023-08-06T04:32:06;19.20;99.90
50989;DHT22;37008;52.210;21.112;2023-08-06T04:34:32;19.20;99.90
50989;DHT22;37008;52.210;21.112;2023-08-06T04:36:59;19.20;99.90
50989;DHT22;37008;52.210;21.112;2023-08-06T04:39:25;19.30;99.90
50989;DHT22;37008;52.210;21.112;2023-08-06T04:41:50;19.40;99.90
50989;DHT22;37008;52.210;21.112;2023-08-06T04:44:16;19.50;99.90
50989;DHT22;37008;52.210;21.112;2023-08-06T04:46:41;19.50;99.90
50989;DHT22;37008;52.210;21.112;2023-08-06T04:49:07;19.60;99.90
50989;DHT22;37008;52.210;21.112;2023-08-06T04:51:33;19.60;99.90
50989;DHT22;37008;52.210;21.112;2023-08-06T04:53:58;19.60;99.90
50989;DHT22;37008;52.210;21.112;2023-08-06T04:56:24;19.70;99.90
50989;DHT22;37008;52.210;21.112;2023-08-06T04:58:50;19.70;99.90
50989;DHT22;37008;52.210;21.112;2023-08-06T05:01:15;19.70;99.90
50989;DHT22;37008;52.210;21.112;2023-08-06T05:03:41;19.70;99.90
50989;DHT22;37008;52.210;21.112;2023-08-06T05:06:07;19.80;99.90
50989;DHT22;37008;52.210;21.112;2023-08-06T05:08:32;19.80;99.90
50989;DHT22;37008;52.210;21.112;2023-08-06T05:10:58;19.80;99.90
50989;DHT22;37008;52.210;21.112;2023-08-06T05:13:23;19.90;99.90
50989;DHT22;37008;52.210;21.112;2023-08-06T05:15:50;19.90;99.90
50989;DHT22;37008;52.210;21.112;2023-08-06T05:18:16;20.00;99.90
50989;DHT22;37008;52.210;21.112;2023-08-06T05:20:42;20.00;99.90
50989;DHT22;37008;52.210;21.112;2023-08-06T05:23:08;20.10;99.90
50989;DHT22;37008;52.210;21.112;2023-08-06T05:25:34;20.10;99.90
50989;DHT22;37008;52.210;21.112;2023-08-06T05:28:01;20.20;99.90
50989;DHT22;37008;52.210;21.112;2023-08-06T05:30:27;20.10;99.90
50989;DHT22;37008;52.210;21.112;2023-08-06T05:32:52;20.20;99.90
50989;DHT22;37008;52.210;21.112;2023-08-06T05:35:18;20.30;99.90
50989;DHT22;37008;52.210;21.112;2023-08-06T05:37:44;20.30;99.90
50989;DHT22;37008;52.210;21.112;2023-08-06T05:40:09;20.40;99.90
50989;DHT22;37008;52.210;21.112;2023-08-06T05:42:35;20.40;99.90
50989;DHT22;37008;52.210;21.112;2023-08-06T05:45:01;20.40;99.90
50989;DHT22;37008;52.210;21.112;2023-08-06T05:47:26;20.50;99.90
50989;DHT22;37008;52.210;21.112;2023-08-06T05:49:52;20.50;99.90
50989;DHT22;37008;52.210;21.112;2023-08-06T05:52:18;20.50;99.90
50989;DHT22;37008;52.210;21.112;2023-08-06T05:54:43;20.50;99.90
50989;DHT22;37008;52.210;21.112;2023-08-06T05:57:09;20.60;99.90
50989;DHT22;37008;52.210;21.112;2023-08-06T05:59:35;20.60;99.90
50989;DHT22;37008;52.210;21.112;2023-08-06T06:02:00;20.70;99.90
50989;DHT22;37008;52.210;21.112;2023-08-06T06:04:26;20.80;99.90
50989;DHT22;37008;52.210;21.112;2023-08-06T06:06:52;20.90;99.90
50989;DHT22;37008;52.210;21.112;2023-08-06T06:09:18;20.90;99.90
50989;DHT22;37008;52.210;21.112;2023-08-06T06:11:43;21.00;99.90
50989;DHT22;37008;52.210;21.112;2023-08-06T06:14:09;21.10;99.90
50989;DHT22;37008;52.210;21.112;2023-08-06T06:16:35;21.10;99.90
50989;DHT22;37008;52.210;21.112;2023-08-06T06:19:00;21.20;99.90
50989;DHT22;37008;52.210;21.112;2023-08-06T06:21:26;21.20;99.90
50989;DHT22;37008;52.210;21.112;2023-08-06T06:23:52;21.20;99.90
50989;DHT22;37008;52.210;21.112;2023-08-06T06:29:46;21.40;99.90
50989;DHT22;37008;52.210;21.112;2023-08-06T06:32:15;21.40;99.90
50989;DHT22;37008;52.210;21.112;2023-08-06T06:34:40;21.60;99.90
50989;DHT22;37008;52.210;21.112;2023-08-06T06:37:12;21.70;99.90
50989;DHT22;37008;52.210;21.112;2023-08-06T06:39:38;21.80;99.90
50989;DHT22;37008;52.210;21.112;2023-08-06T06:42:04;21.80;99.90
50989;DHT22;37008;52.210;21.112;2023-08-06T06:44:30;21.90;99.90
50989;DHT22;37008;52.210;21.112;2023-08-06T06:46:59;22.00;99.90
50989;DHT22;37008;52.210;21.112;2023-08-06T06:49:28;22.10;99.90
50989;DHT22;37008;52.210;21.112;2023-08-06T06:51:59;22.10;99.90
50989;DHT22;37008;52.210;21.112;2023-08-06T06:54:33;22.20;99.90
50989;DHT22;37008;52.210;21.112;2023-08-06T06:56:59;22.30;99.90
50989;DHT22;37008;52.210;21.112;2023-08-06T06:59:25;22.30;99.90
50989;DHT22;37008;52.210;21.112;2023-08-06T07:05:03;22.40;99.90
50989;DHT22;37008;52.210;21.112;2023-08-06T07:07:29;22.50;99.90
50989;DHT22;37008;52.210;21.112;2023-08-06T07:09:57;22.60;99.90
50989;DHT22;37008;52.210;21.112;2023-08-06T07:12:23;22.70;99.90
50989;DHT22;37008;52.210;21.112;2023-08-06T07:14:49;22.80;99.90
50989;DHT22;37008;52.210;21.112;2023-08-06T07:17:14;22.80;99.90
50989;DHT22;37008;52.210;21.112;2023-08-06T07:19:43;22.90;99.90
50989;DHT22;37008;52.210;21.112;2023-08-06T07:22:09;23.10;99.90
50989;DHT22;37008;52.210;21.112;2023-08-06T07:24:34;23.30;99.90
50989;DHT22;37008;52.210;21.112;2023-08-06T07:27:00;23.50;99.90
50989;DHT22;37008;52.210;21.112;2023-08-06T07:29:26;23.60;99.90
50989;DHT22;37008;52.210;21.112;2023-08-06T07:31:52;23.70;99.90
50989;DHT22;37008;52.210;21.112;2023-08-06T07:34:18;23.80;99.90
50989;DHT22;37008;52.210;21.112;2023-08-06T07:36:45;23.90;99.90
50989;DHT22;37008;52.210;21.112;2023-08-06T07:39:11;24.00;99.90
50989;DHT22;37008;52.210;21.112;2023-08-06T07:41:36;24.10;99.90
50989;DHT22;37008;52.210;21.112;2023-08-06T07:44:02;24.20;99.90
50989;DHT22;37008;52.210;21.112;2023-08-06T07:46:28;24.30;99.90
50989;DHT22;37008;52.210;21.112;2023-08-06T07:48:53;24.40;99.90
50989;DHT22;37008;52.210;21.112;2023-08-06T07:51:19;24.50;99.90
50989;DHT22;37008;52.210;21.112;2023-08-06T07:53:45;24.60;99.90
50989;DHT22;37008;52.210;21.112;2023-08-06T07:56:14;24.70;99.90
50989;DHT22;37008;52.210;21.112;2023-08-06T07:58:43;24.80;99.90
50989;DHT22;37008;52.210;21.112;2023-08-06T08:01:12;24.90;99.90
50989;DHT22;37008;52.210;21.112;2023-08-06T08:03:40;25.00;99.90
50989;DHT22;37008;52.210;21.112;2023-08-06T08:06:06;25.00;99.90
50989;DHT22;37008;52.210;21.112;2023-08-06T08:08:35;25.00;99.90
50989;DHT22;37008;52.210;21.112;2023-08-06T08:11:04;25.00;99.90
50989;DHT22;37008;52.210;21.112;2023-08-06T08:13:29;25.10;99.90
50989;DHT22;37008;52.210;21.112;2023-08-06T08:15:59;25.20;99.90
50989;DHT22;37008;52.210;21.112;2023-08-06T08:18:34;25.20;99.90
50989;DHT22;37008;52.210;21.112;2023-08-06T08:21:00;25.20;99.90
50989;DHT22;37008;52.210;21.112;2023-08-06T08:23:30;25.10;99.90
50989;DHT22;37008;52.210;21.112;2023-08-06T08:25:57;25.10;99.90
50989;DHT22;37008;52.210;21.112;2023-08-06T08:28:33;25.20;99.90
50989;DHT22;37008;52.210;21.112;2023-08-06T08:34:19;25.40;99.90
50989;DHT22;37008;52.210;21.112;2023-08-06T08:36:45;25.50;99.90
50989;DHT22;37008;52.210;21.112;2023-08-06T08:39:15;25.60;99.90
50989;DHT22;37008;52.210;21.112;2023-08-06T08:41:42;25.70;99.90
50989;DHT22;37008;52.210;21.112;2023-08-06T08:44:09;25.90;99.90
50989;DHT22;37008;52.210;21.112;2023-08-06T08:46:36;25.90;99.90
50989;DHT22;37008;52.210;21.112;2023-08-06T08:49:04;25.80;99.90
50989;DHT22;37008;52.210;21.112;2023-08-06T08:51:49;25.80;99.90
50989;DHT22;37008;52.210;21.112;2023-08-06T08:54:18;25.90;99.90
50989;DHT22;37008;52.210;21.112;2023-08-06T08:56:45;26.00;99.90
50989;DHT22;37008;52.210;21.112;2023-08-06T08:59:11;26.10;99.90
50989;DHT22;37008;52.210;21.112;2023-08-06T09:01:38;26.10;99.90
50989;DHT22;37008;52.210;21.112;2023-08-06T09:04:07;26.20;99.90
50989;DHT22;37008;52.210;21.112;2023-08-06T09:06:36;26.30;99.90
50989;DHT22;37008;52.210;21.112;2023-08-06T09:09:09;26.50;99.90
50989;DHT22;37008;52.210;21.112;2023-08-06T09:11:42;26.60;99.90
50989;DHT22;37008;52.210;21.112;2023-08-06T09:14:08;26.60;99.90
50989;DHT22;37008;52.210;21.112;2023-08-06T09:16:37;26.70;99.90
50989;DHT22;37008;52.210;21.112;2023-08-06T09:19:13;26.80;99.90
50989;DHT22;37008;52.210;21.112;2023-08-06T09:21:42;26.90;99.90
50989;DHT22;37008;52.210;21.112;2023-08-06T09:24:21;27.10;99.90
50989;DHT22;37008;52.210;21.112;2023-08-06T09:26:50;27.30;99.90
50989;DHT22;37008;52.210;21.112;2023-08-06T09:29:21;27.40;99.50
50989;DHT22;37008;52.210;21.112;2023-08-06T09:31:49;27.60;98.30
50989;DHT22;37008;52.210;21.112;2023-08-06T09:34:20;27.60;99.50
50989;DHT22;37008;52.210;21.112;2023-08-06T09:36:49;27.70;99.50
50989;DHT22;37008;52.210;21.112;2023-08-06T09:39:17;27.70;98.60
50989;DHT22;37008;52.210;21.112;2023-08-06T09:41:44;27.90;98.40
50989;DHT22;37008;52.210;21.112;2023-08-06T09:44:20;28.00;95.30
50989;DHT22;37008;52.210;21.112;2023-08-06T09:46:52;28.00;93.60
50989;DHT22;37008;52.210;21.112;2023-08-06T09:49:25;27.90;92.30
50989;DHT22;37008;52.210;21.112;2023-08-06T09:51:51;28.00;89.70
50989;DHT22;37008;52.210;21.112;2023-08-06T09:54:19;28.20;90.70
50989;DHT22;37008;52.210;21.112;2023-08-06T09:56:45;28.40;88.90
50989;DHT22;37008;52.210;21.112;2023-08-06T09:59:12;28.40;85.30
50989;DHT22;37008;52.210;21.112;2023-08-06T10:01:38;28.20;84.90
50989;DHT22;37008;52.210;21.112;2023-08-06T10:04:05;28.10;85.30
50989;DHT22;37008;52.210;21.112;2023-08-06T10:06:35;28.10;88.10
50989;DHT22;37008;52.210;21.112;2023-08-06T10:09:02;28.10;90.10
50989;DHT22;37008;52.210;21.112;2023-08-06T10:11:29;28.20;89.30
50989;DHT22;37008;52.210;21.112;2023-08-06T10:16:34;28.20;86.70
50989;DHT22;37008;52.210;21.112;2023-08-06T10:19:01;28.20;85.70
50989;DHT22;37008;52.210;21.112;2023-08-06T10:21:27;28.20;85.70
50989;DHT22;37008;52.210;21.112;2023-08-06T10:23:54;28.20;84.60
50989;DHT22;37008;52.210;21.112;2023-08-06T10:26:20;28.20;85.10
50989;DHT22;37008;52.210;21.112;2023-08-06T10:28:45;28.30;83.50
50989;DHT22;37008;52.210;21.112;2023-08-06T10:31:11;28.40;82.40
50989;DHT22;37008;52.210;21.112;2023-08-06T10:33:47;28.40;81.50
50989;DHT22;37008;52.210;21.112;2023-08-06T10:36:14;28.50;80.40
50989;DHT22;37008;52.210;21.112;2023-08-06T10:38:48;28.50;80.90
50989;DHT22;37008;52.210;21.112;2023-08-06T10:41:23;28.60;78.40
50989;DHT22;37008;52.210;21.112;2023-08-06T10:44:08;28.70;78.30
50989;DHT22;37008;52.210;21.112;2023-08-06T10:46:34;28.80;77.40
50989;DHT22;37008;52.210;21.112;2023-08-06T10:49:00;28.80;77.80
50989;DHT22;37008;52.210;21.112;2023-08-06T10:51:26;28.90;74.70
50989;DHT22;37008;52.210;21.112;2023-08-06T10:53:53;29.10;74.40
50989;DHT22;37008;52.210;21.112;2023-08-06T10:56:20;29.40;74.40
50989;DHT22;37008;52.210;21.112;2023-08-06T10:58:50;29.60;70.90
50989;DHT22;37008;52.210;21.112;2023-08-06T11:01:16;29.70;69.90
50989;DHT22;37008;52.210;21.112;2023-08-06T11:03:43;29.70;69.10
50989;DHT22;37008;52.210;21.112;2023-08-06T11:06:09;29.70;68.80
50989;DHT22;37008;52.210;21.112;2023-08-06T11:08:37;29.80;68.50
50989;DHT22;37008;52.210;21.112;2023-08-06T11:11:10;29.80;68.10
50989;DHT22;37008;52.210;21.112;2023-08-06T11:13:42;29.70;68.10
50989;DHT22;37008;52.210;21.112;2023-08-06T11:16:09;29.80;67.60
50989;DHT22;37008;52.210;21.112;2023-08-06T11:18:35;29.90;67.60
50989;DHT22;37008;52.210;21.112;2023-08-06T11:21:01;29.90;64.50
50989;DHT22;37008;52.210;21.112;2023-08-06T11:23:33;30.10;63.70
50989;DHT22;37008;52.210;21.112;2023-08-06T11:25:59;30.20;63.90
50989;DHT22;37008;52.210;21.112;2023-08-06T11:28:25;30.30;61.30
50989;DHT22;37008;52.210;21.112;2023-08-06T11:30:51;30.10;60.90
50989;DHT22;37008;52.210;21.112;2023-08-06T11:33:22;30.00;62.70
50989;DHT22;37008;52.210;21.112;2023-08-06T11:35:48;29.80;64.30
50989;DHT22;37008;52.210;21.112;2023-08-06T11:38:14;29.70;64.00
50989;DHT22;37008;52.210;21.112;2023-08-06T11:40:43;29.70;64.30
50989;DHT22;37008;52.210;21.112;2023-08-06T11:43:09;29.90;63.20
50989;DHT22;37008;52.210;21.112;2023-08-06T11:45:35;30.00;62.60
50989;DHT22;37008;52.210;21.112;2023-08-06T11:48:01;30.20;62.40
50989;DHT22;37008;52.210;21.112;2023-08-06T11:50:28;30.20;62.30
50989;DHT22;37008;52.210;21.112;2023-08-06T11:52:59;30.20;62.80
50989;DHT22;37008;52.210;21.112;2023-08-06T11:55:26;30.20;62.40
50989;DHT22;37008;52.210;21.112;2023-08-06T11:57:53;30.20;60.90
50989;DHT22;37008;52.210;21.112;2023-08-06T12:00:20;30.10;60.90
50989;DHT22;37008;52.210;21.112;2023-08-06T12:02:48;30.00;61.40
50989;DHT22;37008;52.210;21.112;2023-08-06T12:05:16;30.00;62.70
50989;DHT22;37008;52.210;21.112;2023-08-06T12:07:44;30.10;62.20
50989;DHT22;37008;52.210;21.112;2023-08-06T12:10:11;30.10;62.20
50989;DHT22;37008;52.210;21.112;2023-08-06T12:12:37;30.00;61.50
50989;DHT22;37008;52.210;21.112;2023-08-06T12:15:04;29.90;61.70
50989;DHT22;37008;52.210;21.112;2023-08-06T12:17:32;29.70;60.80
50989;DHT22;37008;52.210;21.112;2023-08-06T12:19:57;29.50;62.00
50989;DHT22;37008;52.210;21.112;2023-08-06T12:22:23;29.20;62.40
50989;DHT22;37008;52.210;21.112;2023-08-06T12:24:49;29.00;62.80
50989;DHT22;37008;52.210;21.112;2023-08-06T12:27:15;28.70;63.30
50989;DHT22;37008;52.210;21.112;2023-08-06T12:29:47;28.50;64.10
50989;DHT22;37008;52.210;21.112;2023-08-06T12:32:13;28.30;64.60
50989;DHT22;37008;52.210;21.112;2023-08-06T12:34:43;28.20;65.30
50989;DHT22;37008;52.210;21.112;2023-08-06T12:37:09;28.10;66.50
50989;DHT22;37008;52.210;21.112;2023-08-06T12:39:35;28.00;67.80
50989;DHT22;37008;52.210;21.112;2023-08-06T12:42:02;27.80;67.80
50989;DHT22;37008;52.210;21.112;2023-08-06T12:44:28;27.60;67.80
50989;DHT22;37008;52.210;21.112;2023-08-06T12:46:54;27.40;68.10
50989;DHT22;37008;52.210;21.112;2023-08-06T12:49:20;27.30;69.20
50989;DHT22;37008;52.210;21.112;2023-08-06T12:51:50;27.20;69.20
50989;DHT22;37008;52.210;21.112;2023-08-06T12:54:20;27.10;69.70
50989;DHT22;37008;52.210;21.112;2023-08-06T12:56:47;27.00;70.80
50989;DHT22;37008;52.210;21.112;2023-08-06T12:59:15;26.90;71.30
50989;DHT22;37008;52.210;21.112;2023-08-06T13:01:41;26.80;71.90
50989;DHT22;37008;52.210;21.112;2023-08-06T13:04:07;26.80;72.80
50989;DHT22;37008;52.210;21.112;2023-08-06T13:06:33;26.70;74.40
50989;DHT22;37008;52.210;21.112;2023-08-06T13:09:06;26.60;75.50
50989;DHT22;37008;52.210;21.112;2023-08-06T13:11:32;26.50;76.20
50989;DHT22;37008;52.210;21.112;2023-08-06T13:14:06;26.40;77.50
50989;DHT22;37008;52.210;21.112;2023-08-06T13:16:33;26.10;81.40
50989;DHT22;37008;52.210;21.112;2023-08-06T13:18:59;25.50;87.10
50989;DHT22;37008;52.210;21.112;2023-08-06T13:21:30;25.00;93.20
50989;DHT22;37008;52.210;21.112;2023-08-06T13:23:56;24.80;99.70
50989;DHT22;37008;52.210;21.112;2023-08-06T13:26:21;24.90;99.90
50989;DHT22;37008;52.210;21.112;2023-08-06T13:28:47;25.30;99.90
50989;DHT22;37008;52.210;21.112;2023-08-06T13:31:14;25.60;99.90
50989;DHT22;37008;52.210;21.112;2023-08-06T13:33:40;25.90;99.90
50989;DHT22;37008;52.210;21.112;2023-08-06T13:36:05;26.10;99.90
50989;DHT22;37008;52.210;21.112;2023-08-06T13:38:31;26.30;99.90
50989;DHT22;37008;52.210;21.112;2023-08-06T13:40:56;26.50;99.90
50989;DHT22;37008;52.210;21.112;2023-08-06T13:43:24;26.60;99.90
50989;DHT22;37008;52.210;21.112;2023-08-06T13:45:49;26.80;99.90
50989;DHT22;37008;52.210;21.112;2023-08-06T13:48:15;27.00;99.90
50989;DHT22;37008;52.210;21.112;2023-08-06T13:50:40;27.20;99.90
50989;DHT22;37008;52.210;21.112;2023-08-06T13:53:06;27.30;99.90
50989;DHT22;37008;52.210;21.112;2023-08-06T13:55:32;27.30;99.90
50989;DHT22;37008;52.210;21.112;2023-08-06T13:57:57;27.20;99.90
50989;DHT22;37008;52.210;21.112;2023-08-06T14:00:23;27.00;99.90
50989;DHT22;37008;52.210;21.112;2023-08-06T14:02:49;27.00;99.90
50989;DHT22;37008;52.210;21.112;2023-08-06T14:05:14;27.00;99.90
50989;DHT22;37008;52.210;21.112;2023-08-06T14:07:40;27.20;99.90
50989;DHT22;37008;52.210;21.112;2023-08-06T14:10:06;27.30;99.90
50989;DHT22;37008;52.210;21.112;2023-08-06T14:12:32;27.50;99.90
50989;DHT22;37008;52.210;21.112;2023-08-06T14:14:57;27.70;99.90
50989;DHT22;37008;52.210;21.112;2023-08-06T14:17:24;27.90;99.90
50989;DHT22;37008;52.210;21.112;2023-08-06T14:19:50;28.00;97.10
50989;DHT22;37008;52.210;21.112;2023-08-06T14:22:15;28.00;95.60
50989;DHT22;37008;52.210;21.112;2023-08-06T14:24:41;28.10;94.20
50989;DHT22;37008;52.210;21.112;2023-08-06T14:27:07;28.10;93.00
50989;DHT22;37008;52.210;21.112;2023-08-06T14:29:33;28.00;91.90
50989;DHT22;37008;52.210;21.112;2023-08-06T14:31:58;28.10;91.80
50989;DHT22;37008;52.210;21.112;2023-08-06T14:34:24;28.00;91.50
50989;DHT22;37008;52.210;21.112;2023-08-06T14:36:49;28.00;91.00
50989;DHT22;37008;52.210;21.112;2023-08-06T14:39:15;28.30;91.60
50989;DHT22;37008;52.210;21.112;2023-08-06T14:41:41;29.10;90.50
50989;DHT22;37008;52.210;21.112;2023-08-06T14:44:06;30.00;86.10
50989;DHT22;37008;52.210;21.112;2023-08-06T14:46:33;30.30;80.10
50989;DHT22;37008;52.210;21.112;2023-08-06T14:48:58;30.50;76.60
50989;DHT22;37008;52.210;21.112;2023-08-06T14:51:24;30.90;75.00
50989;DHT22;37008;52.210;21.112;2023-08-06T14:53:49;31.70;71.80
50989;DHT22;37008;52.210;21.112;2023-08-06T14:56:15;32.50;67.20
50989;DHT22;37008;52.210;21.112;2023-08-06T14:58:41;32.80;63.20
50989;DHT22;37008;52.210;21.112;2023-08-06T15:01:07;32.70;61.10
50989;DHT22;37008;52.210;21.112;2023-08-06T15:03:33;32.40;62.20
50989;DHT22;37008;52.210;21.112;2023-08-06T15:05:59;32.30;62.60
50989;DHT22;37008;52.210;21.112;2023-08-06T15:08:24;32.00;61.90
50989;DHT22;37008;52.210;21.112;2023-08-06T15:10:51;32.50;61.30
50989;DHT22;37008;52.210;21.112;2023-08-06T15:13:20;32.40;60.00
50989;DHT22;37008;52.210;21.112;2023-08-06T15:15:49;32.10;60.30
50989;DHT22;37008;52.210;21.112;2023-08-06T15:18:15;31.50;61.30
50989;DHT22;37008;52.210;21.112;2023-08-06T15:20:41;30.90;62.40
50989;DHT22;37008;52.210;21.112;2023-08-06T15:23:07;30.40;63.00
50989;DHT22;37008;52.210;21.112;2023-08-06T15:25:32;30.00;63.10